Ana Sayfa
METAR-TAF:

METAR-TAF

Havaalanları :

Santoron, Yunanistan

Enlem: 36-24N, Boylam: 025-29E, yükseklik: 38 m

Güncel hava durumu gözlemi

Rapor saat 07:20 UTC de 17 dakika önce yapıldı.
Rüzgar kuzey/kuzeydoğudan 10 kt
Sıcaklık 16°C
Nem 68%
Basınç 1019 hPa
Görüş mesafesi 10 km veya daha fazla
2500 ft yükseklikte parçalı bulutlu

METAR: LGSR 250720Z 02010KT 9999 SCT025 16/10 Q1019

Saat: 09:37 (07:37 UTC)

Tahmin

Rapor saat 05:00 UTC de 2 saat ve 37 dakika önce yapıldı.
Ayın 25'si saat 06 UTC'den ayın 26'si saat 06 UTC'ye kadar geçerli Tahmin
Rüzgar kuzeydan 12 kt
Görüş mesafesi 10 km veya daha fazla
2500 ft yükseklikte az bulutlu
Dönüşüyor
ayın 25'si saat 12 UTC'den ayın 25'si saat 14 UTC'ye kadar
Rüzgar değişken yönden 5 kt
Dönüşüyor
ayın 25'si saat 19 UTC'den ayın 25'si saat 21 UTC'ye kadar
Rüzgar güney/güneybatıdan 10 kt

TAF: LGSR 250500Z 2506/2606 01012KT 9999 FEW025 BECMG 2512/2514 VRB05KT BECMG 2519/2521 20010KT

4.000'den fazla havaalanı için hava durumu gözlemleri ve tahminleri (METAR ve TAF raporları).

Kullanılabilir istasyonlar harita üzerinde sarı ve kırmızı noktalarla gösterilir.

İstasyonun adını görmek için fareyi noktanın üzerinde gezdirin.

Sonrasında hava gözlem ve tahminlerini görmek için tıklayın.

Haritayı değiştirmek için: yaklaştırmak için siyah artı işaretli yeşil düğmeye ve uzaklaştırmak için de eksi işaretli düğmeye hızla tıklayın; bitişik haritalar için yeşil okları kullanın.


METAR-TAF: